createdAt,value
2023-11-28T00:01:17.514Z,99890.72
2023-11-28T00:06:23.422Z,99884.75
2023-11-28T00:11:25.959Z,99890.09
2023-11-28T00:16:28.620Z,99888.28
2023-11-28T00:21:32.520Z,99896.53
2023-11-28T00:26:35.078Z,99893.78
2023-11-28T00:31:37.662Z,99892.63
2023-11-28T00:36:41.679Z,99888.75
2023-11-28T00:41:44.471Z,99892.84
2023-11-28T00:46:47.076Z,99895.28
2023-11-28T00:51:51.025Z,99899.78
2023-11-28T00:56:53.562Z,99909.72
2023-11-28T01:01:56.198Z,99906.34
2023-11-28T01:07:00.264Z,99903.22
2023-11-28T01:12:02.959Z,99907.06
2023-11-28T01:17:08.355Z,99901.16
2023-11-28T01:22:12.813Z,99908.75
2023-11-28T01:27:15.353Z,99904.50
2023-11-28T01:32:18.051Z,99907.84
2023-11-28T01:37:22.836Z,99905.63
2023-11-28T01:42:25.558Z,99914.91
2023-11-28T01:47:28.837Z,99911.69
2023-11-28T01:52:33.961Z,99915.81
2023-11-28T01:57:36.572Z,99904.72
2023-11-28T02:02:39.312Z,99917.19
2023-11-28T02:07:44.452Z,99913.19
2023-11-28T02:12:47.756Z,99906.84
2023-11-28T02:17:50.517Z,99909.44
2023-11-28T02:22:54.502Z,99898.09
2023-11-28T02:27:58.603Z,99912.78
2023-11-28T02:33:01.221Z,99908.09
2023-11-28T02:38:03.838Z,99902.94
2023-11-28T02:43:07.778Z,99906.59
2023-11-28T02:48:10.315Z,99909.16
2023-11-28T02:53:13.219Z,99905.53
2023-11-28T02:58:17.081Z,99908.09
2023-11-28T03:03:19.715Z,99902.81
2023-11-28T03:08:22.366Z,99900.09
2023-11-28T03:13:26.268Z,99898.31
2023-11-28T03:18:28.790Z,99905.13
2023-11-28T03:23:31.328Z,99909.88
2023-11-28T03:28:35.324Z,99904.59
2023-11-28T03:33:37.913Z,99900.31
2023-11-28T03:38:40.508Z,99895.31
2023-11-28T03:43:44.448Z,99898.81
2023-11-28T03:48:47.079Z,99894.00
2023-11-28T03:53:49.737Z,99899.94
2023-11-28T03:58:53.878Z,99898.41
2023-11-28T04:03:56.428Z,99896.84
2023-11-28T04:08:59.013Z,99896.59
2023-11-28T04:14:03.374Z,99901.13
2023-11-28T04:19:06.072Z,99904.47
2023-11-28T04:24:08.725Z,99904.31
2023-11-28T04:29:13.520Z,99903.56
2023-11-28T04:34:16.612Z,99909.47
2023-11-28T04:39:19.122Z,99918.50
2023-11-28T04:44:23.184Z,99915.56
2023-11-28T04:49:25.740Z,99912.41
2023-11-28T04:54:28.275Z,99911.41
2023-11-28T04:59:32.110Z,99907.72
2023-11-28T05:04:34.672Z,99900.28
2023-11-28T05:09:37.695Z,99902.25
2023-11-28T05:14:41.797Z,99897.50
2023-11-28T05:19:44.981Z,99889.91
2023-11-28T05:24:47.532Z,99886.97
2023-11-28T05:29:51.369Z,99890.84
2023-11-28T05:34:53.889Z,99891.50
2023-11-28T05:39:56.411Z,99892.66
2023-11-28T05:45:00.711Z,99886.72
2023-11-28T05:50:03.802Z,99896.53
2023-11-28T05:55:07.386Z,99893.69
2023-11-28T06:00:15.543Z,99900.28
2023-11-28T06:05:19.707Z,99903.13
2023-11-28T06:10:22.270Z,99905.94
2023-11-28T06:15:27.118Z,99911.00
2023-11-28T06:20:29.641Z,99913.81
2023-11-28T06:25:33.478Z,99912.53
2023-11-28T06:30:37.355Z,99922.50
2023-11-28T06:35:40.052Z,99926.47
2023-11-28T06:40:42.666Z,99939.91
2023-11-28T06:45:46.607Z,99938.72
2023-11-28T06:50:49.161Z,99943.00
2023-11-28T06:55:51.737Z,99954.63
2023-11-28T07:00:56.098Z,99956.13
2023-11-28T07:05:58.700Z,99962.09
2023-11-28T07:11:01.268Z,99965.94
2023-11-28T07:16:05.642Z,99962.06
2023-11-28T07:21:08.936Z,99962.19
2023-11-28T07:26:11.872Z,99972.13
2023-11-28T07:31:16.373Z,99976.78
2023-11-28T07:36:18.896Z,99973.63
2023-11-28T07:41:21.434Z,99983.97
2023-11-28T07:46:25.559Z,99986.69
2023-11-28T07:51:28.150Z,99987.81
2023-11-28T07:56:30.666Z,99997.53
2023-11-28T08:01:34.503Z,100010.03
2023-11-28T08:06:37.030Z,100002.53
2023-11-28T08:11:39.607Z,100010.66
2023-11-28T08:16:43.554Z,100006.91
2023-11-28T08:21:46.149Z,100020.06
2023-11-28T08:26:48.661Z,100013.31
2023-11-28T08:31:52.890Z,100013.72
2023-11-28T08:36:55.584Z,100016.31
2023-11-28T08:41:58.523Z,100020.94
2023-11-28T08:47:02.574Z,100034.03
2023-11-28T08:52:07.547Z,100037.25
2023-11-28T08:57:16.364Z,100032.72
2023-11-28T09:02:20.990Z,100035.81
2023-11-28T09:07:24.244Z,100042.44
2023-11-28T09:12:27.066Z,100047.38
2023-11-28T09:17:31.100Z,100051.97
2023-11-28T09:22:33.763Z,100057.59
2023-11-28T09:27:36.286Z,100057.84
2023-11-28T09:32:40.270Z,100060.19
2023-11-28T09:37:42.915Z,100062.88
2023-11-28T09:42:46.348Z,100065.59
2023-11-28T09:47:53.482Z,100072.16
2023-11-28T09:52:56.138Z,100066.97
2023-11-28T09:57:59.173Z,100068.56
2023-11-28T10:03:04.208Z,100074.38
2023-11-28T10:08:10.051Z,100078.78
2023-11-28T10:13:13.921Z,100078.00
2023-11-28T10:18:21.264Z,100081.53
2023-11-28T10:23:23.838Z,100073.25
2023-11-28T10:28:26.455Z,100082.28
2023-11-28T10:33:30.434Z,100075.06
2023-11-28T10:38:36.049Z,100082.69
2023-11-28T10:43:38.615Z,100082.28
2023-11-28T10:48:42.598Z,100084.25
2023-11-28T10:53:48.139Z,100088.28
2023-11-28T10:58:50.709Z,100093.19
2023-11-28T11:03:55.609Z,100099.69
2023-11-28T11:09:00.200Z,100098.13
2023-11-28T11:14:12.239Z,100106.56
2023-11-28T11:19:16.779Z,100103.84
2023-11-28T11:24:21.309Z,100104.88
2023-11-28T11:29:41.354Z,100107.69
2023-11-28T11:34:46.550Z,100115.59
2023-11-28T11:39:50.337Z,100101.75
2023-11-28T11:44:54.196Z,100097.22
2023-11-28T11:50:01.863Z,100113.66
2023-11-28T11:55:06.393Z,100104.59
2023-11-28T12:00:11.800Z,100103.44
2023-11-28T12:05:16.153Z,100100.63
2023-11-28T12:10:18.860Z,100107.44
2023-11-28T12:15:21.419Z,100110.03
2023-11-28T12:20:32.993Z,100114.66
2023-11-28T12:25:43.884Z,100121.25
2023-11-28T12:30:47.514Z,100123.88
2023-11-28T12:35:51.460Z,100123.63
2023-11-28T12:41:02.575Z,100128.25
2023-11-28T12:46:13.801Z,100121.16
2023-11-28T12:51:19.278Z,100127.63
2023-11-28T12:56:21.827Z,100129.69
2023-11-28T13:01:24.542Z,100132.78
2023-11-28T13:06:30.495Z,100139.78
2023-11-28T13:11:34.505Z,100152.97
2023-11-28T13:16:38.026Z,100155.00
2023-11-28T13:21:42.541Z,100144.66
2023-11-28T13:26:45.052Z,100148.56
2023-11-28T13:31:47.798Z,100171.94
2023-11-28T13:36:51.850Z,100151.13
2023-11-28T13:41:54.419Z,100155.25
2023-11-28T13:46:56.988Z,100160.28
2023-11-28T13:52:01.953Z,100158.25
2023-11-28T13:57:04.617Z,100176.03
2023-11-28T14:02:07.409Z,100165.06
2023-11-28T14:07:12.741Z,100176.13
2023-11-28T14:12:15.458Z,100171.34
2023-11-28T14:17:18.154Z,100181.94
2023-11-28T14:22:24.508Z,100179.84
2023-11-28T14:27:27.106Z,100177.34
2023-11-28T14:32:29.723Z,100173.84
2023-11-28T14:37:34.101Z,100181.19
2023-11-28T14:42:37.004Z,100182.53
2023-11-28T14:47:39.815Z,100198.16
2023-11-28T14:52:43.790Z,100197.50
2023-11-28T14:57:46.359Z,100201.19
2023-11-28T15:02:49.241Z,100207.63
2023-11-28T15:07:53.228Z,100208.38
2023-11-28T15:12:58.092Z,100203.44
2023-11-28T15:18:00.741Z,100210.28
2023-11-28T15:23:05.165Z,100215.72
2023-11-28T15:28:12.030Z,100223.53
2023-11-28T15:33:14.856Z,100223.59
2023-11-28T15:38:19.844Z,100232.91
2023-11-28T15:43:28.286Z,100236.69
2023-11-28T15:48:30.829Z,100248.78
2023-11-28T15:53:34.725Z,100256.53
2023-11-28T15:58:37.526Z,100250.75
2023-11-28T16:03:40.165Z,100246.22
2023-11-28T16:08:44.664Z,100247.03
2023-11-28T16:13:47.252Z,100244.59
2023-11-28T16:18:50.495Z,100246.66
2023-11-28T16:23:54.822Z,100246.69
2023-11-28T16:28:57.464Z,100236.81
2023-11-28T16:34:00.112Z,100231.56
2023-11-28T16:39:06.813Z,100232.44
2023-11-28T16:44:09.408Z,100243.09
2023-11-28T16:49:12.748Z,100247.50
2023-11-28T16:54:16.830Z,100249.50
2023-11-28T16:59:19.552Z,100251.19
2023-11-28T17:04:22.530Z,100259.38
2023-11-28T17:09:27.134Z,100257.13
2023-11-28T17:14:31.219Z,100273.66
2023-11-28T17:19:33.942Z,100280.34
2023-11-28T17:24:37.865Z,100288.06
2023-11-28T17:29:41.152Z,100286.09
2023-11-28T17:34:44.225Z,100285.38
2023-11-28T17:39:48.073Z,100291.59
2023-11-28T17:44:51.381Z,100293.72
2023-11-28T17:49:53.986Z,100301.75
2023-11-28T17:54:59.496Z,100288.28
2023-11-28T18:00:02.097Z,100291.94
2023-11-28T18:05:05.203Z,100281.78
2023-11-28T18:10:10.400Z,100276.66
2023-11-28T18:20:19.697Z,100279.84
2023-11-28T18:25:23.685Z,100284.84
2023-11-28T18:30:26.486Z,100280.72
2023-11-28T18:35:29.054Z,100278.16
2023-11-28T18:40:32.924Z,100272.13
2023-11-28T18:45:35.522Z,100259.69
2023-11-28T18:50:38.713Z,100264.84
2023-11-28T18:55:42.581Z,100270.13
2023-11-28T19:00:45.226Z,100276.59
2023-11-28T19:05:51.834Z,100281.13
2023-11-28T19:10:56.083Z,100276.28
2023-11-28T19:15:58.783Z,100275.38
2023-11-28T19:21:01.775Z,100274.94
2023-11-28T19:26:05.744Z,100279.00
2023-11-28T19:31:08.310Z,100278.13
2023-11-28T19:36:11.669Z,100270.28
2023-11-28T19:41:15.577Z,100260.59
2023-11-28T19:46:19.555Z,100275.56
2023-11-28T19:51:22.382Z,100276.81
2023-11-28T19:56:26.337Z,100267.25
2023-11-28T20:01:28.916Z,100274.84
2023-11-28T20:06:31.591Z,100270.88
2023-11-28T20:11:38.083Z,100276.19
2023-11-28T20:16:42.424Z,100278.94
2023-11-28T20:21:46.453Z,100275.59
2023-11-28T20:26:51.656Z,100264.84
2023-11-28T20:31:54.278Z,100260.16
2023-11-28T20:37:10.175Z,100266.53
2023-11-28T20:42:21.938Z,100255.16
2023-11-28T20:47:24.541Z,100252.28
2023-11-28T20:52:27.163Z,100243.34
2023-11-28T20:57:33.482Z,100234.09
2023-11-28T21:02:36.561Z,100242.31
2023-11-28T21:07:39.136Z,100232.59
2023-11-28T21:12:43.038Z,100226.69
2023-11-28T21:17:45.705Z,100229.72
2023-11-28T21:22:48.352Z,100223.16
2023-11-28T21:27:52.312Z,100215.00
2023-11-28T21:32:55.253Z,100215.41
2023-11-28T21:37:59.212Z,100200.25
2023-11-28T21:43:03.242Z,100201.78
2023-11-28T21:48:15.537Z,100202.34
2023-11-28T21:53:25.675Z,100213.13
2023-11-28T21:58:29.653Z,100202.03
2023-11-28T22:03:34.623Z,100197.47
2023-11-28T22:08:47.498Z,100213.22
2023-11-28T22:13:58.145Z,100198.19
2023-11-28T22:19:00.768Z,100190.47
2023-11-28T22:24:03.443Z,100179.84
2023-11-28T22:29:08.662Z,100184.81
2023-11-28T22:34:11.259Z,100183.53
2023-11-28T22:39:13.782Z,100172.47
2023-11-28T22:44:17.866Z,100169.00
2023-11-28T22:49:20.430Z,100170.78
2023-11-28T22:54:22.965Z,100184.88
2023-11-28T22:59:26.843Z,100184.75
2023-11-28T23:04:30.443Z,100182.03
2023-11-28T23:09:34.338Z,100184.03
2023-11-28T23:14:38.456Z,100177.69
2023-11-28T23:19:41.080Z,100172.09
2023-11-28T23:24:43.718Z,100162.56
2023-11-28T23:29:47.579Z,100163.16
2023-11-28T23:34:50.341Z,100161.38
2023-11-28T23:39:52.949Z,100159.28
2023-11-28T23:44:56.860Z,100147.91
2023-11-28T23:49:59.389Z,100123.69
2023-11-28T23:55:01.947Z,100106.81
